Terminal Aerodrome Forecast
Issued by NWS

Home | Current Version | Previous Version | Text Only | Print | Product List | Glossary On
Versions: 1 2 3 4 5 6 7 8 9 10 11 12 13 14 15 16 17 18 19 20 21 22 23 24 25 26 27 28 29 30
000
FTUS45 KBOU 220000 AAC
TAFAPA
TAF AMD
KAPA 220000Z 2200/2224 18010KT P6SM FEW080 BKN140
     FM220700 20008KT P6SM SCT140 BKN220
     FM221600 18010KT P6SM FEW140
     FM222100 18014G22KT P6SM SCT100 BKN200=

USA.gov is the U.S. government's official web portal to all federal, state and local government web resources and services.